createdAt,value
2018-08-23T00:00:36.962Z,0
2018-08-23T00:01:36.744Z,0
2018-08-23T00:02:37.538Z,0
2018-08-23T00:03:37.567Z,0
2018-08-23T00:04:36.738Z,0
2018-08-23T00:05:36.735Z,0
2018-08-23T00:06:36.984Z,0
2018-08-23T00:07:36.460Z,0
2018-08-23T00:08:37.298Z,0
2018-08-23T00:09:37.379Z,0
2018-08-23T00:10:37.028Z,0
2018-08-23T00:11:37.014Z,0
2018-08-23T00:12:36.756Z,0
2018-08-23T00:13:37.284Z,0
2018-08-23T00:14:36.731Z,0
2018-08-23T00:15:37.296Z,0
2018-08-23T00:16:37.343Z,0
2018-08-23T00:17:36.757Z,0
2018-08-23T00:18:36.755Z,0
2018-08-23T00:19:36.755Z,0
2018-08-23T00:20:37.033Z,0
2018-08-23T00:21:37.016Z,0
2018-08-23T00:22:37.015Z,0
2018-08-23T00:23:36.756Z,0
2018-08-23T00:24:36.746Z,0
2018-08-23T00:25:36.757Z,0
2018-08-23T00:26:37.018Z,0
2018-08-23T00:27:37.016Z,0
2018-08-23T00:28:37.018Z,0
2018-08-23T00:29:37.020Z,0
2018-08-23T00:30:37.060Z,0
2018-08-23T00:31:36.758Z,0
2018-08-23T00:32:37.298Z,0
2018-08-23T00:33:36.765Z,0
2018-08-23T00:34:36.771Z,0
2018-08-23T00:35:37.060Z,0
2018-08-23T00:36:36.525Z,0
2018-08-23T00:37:36.775Z,0
2018-08-23T00:38:37.035Z,0
2018-08-23T00:39:36.558Z,0
2018-08-23T00:40:37.040Z,0
2018-08-23T00:41:37.037Z,0
2018-08-23T00:42:37.299Z,0
2018-08-23T00:43:36.776Z,0
2018-08-23T00:44:36.277Z,0
2018-08-23T00:45:36.788Z,0
2018-08-23T00:46:36.779Z,0
2018-08-23T00:47:36.817Z,0
2018-08-23T00:48:37.297Z,0
2018-08-23T00:49:37.343Z,0
2018-08-23T00:50:37.056Z,0
2018-08-23T00:51:36.824Z,0
2018-08-23T00:52:36.573Z,0
2018-08-23T00:53:37.316Z,0
2018-08-23T00:54:36.805Z,0
2018-08-23T00:55:36.564Z,0
2018-08-23T00:56:36.816Z,0
2018-08-23T00:57:36.829Z,0
2018-08-23T00:58:37.306Z,0
2018-08-23T00:59:36.306Z,0
2018-08-23T01:00:37.061Z,0
2018-08-23T01:01:37.327Z,0
2018-08-23T01:02:37.098Z,0
2018-08-23T01:03:38.704Z,0
2018-08-23T01:04:36.819Z,0
2018-08-23T01:05:37.349Z,0
2018-08-23T01:06:37.103Z,0
2018-08-23T01:07:36.575Z,0
2018-08-23T01:08:36.826Z,0
2018-08-23T01:09:37.132Z,0
2018-08-23T01:10:37.090Z,0
2018-08-23T01:11:37.360Z,0
2018-08-23T01:12:36.836Z,0
2018-08-23T01:13:37.097Z,0
2018-08-23T01:14:37.122Z,0
2018-08-23T01:15:37.349Z,0
2018-08-23T01:16:36.936Z,0
2018-08-23T01:17:37.349Z,0
2018-08-23T01:18:36.856Z,0
2018-08-23T01:19:36.848Z,0
2018-08-23T01:20:37.099Z,0
2018-08-23T01:21:37.108Z,0
2018-08-23T01:22:37.116Z,0
2018-08-23T01:23:36.611Z,0
2018-08-23T01:24:37.119Z,0
2018-08-23T01:25:37.389Z,0
2018-08-23T01:26:37.114Z,0
2018-08-23T01:27:36.618Z,0
2018-08-23T01:28:36.613Z,0
2018-08-23T01:29:36.866Z,0
2018-08-23T01:30:36.863Z,0
2018-08-23T01:31:36.875Z,0
2018-08-23T01:32:36.883Z,0
2018-08-23T01:33:38.724Z,0
2018-08-23T01:34:37.129Z,0
2018-08-23T01:35:36.624Z,0
2018-08-23T01:36:36.883Z,0
2018-08-23T01:37:36.626Z,0
2018-08-23T01:38:37.412Z,0
2018-08-23T01:39:36.377Z,0
2018-08-23T01:40:37.163Z,0
2018-08-23T01:41:37.163Z,0
2018-08-23T01:42:37.167Z,0
2018-08-23T01:43:37.166Z,0
2018-08-23T01:44:37.415Z,0
2018-08-23T01:45:37.164Z,0
2018-08-23T01:46:36.911Z,0
2018-08-23T01:47:37.217Z,0
2018-08-23T01:48:37.209Z,0
2018-08-23T01:49:37.420Z,0
2018-08-23T01:50:37.426Z,0
2018-08-23T01:51:37.181Z,0
2018-08-23T01:52:37.178Z,0
2018-08-23T01:53:36.913Z,0
2018-08-23T01:54:36.927Z,0
2018-08-23T01:55:37.200Z,0
2018-08-23T01:56:36.949Z,0
2018-08-23T01:57:36.940Z,0
2018-08-23T01:58:37.454Z,0
2018-08-23T01:59:37.184Z,0
2018-08-23T02:00:37.203Z,0
2018-08-23T02:01:37.454Z,0
2018-08-23T02:02:36.942Z,0
2018-08-23T02:03:37.450Z,0
2018-08-23T02:04:37.101Z,0
2018-08-23T02:05:36.698Z,0
2018-08-23T02:06:37.461Z,0
2018-08-23T02:07:37.504Z,0
2018-08-23T02:08:37.488Z,0
2018-08-23T02:09:37.497Z,0
2018-08-23T02:10:37.234Z,0
2018-08-23T02:11:37.327Z,0
2018-08-23T02:12:37.213Z,0
2018-08-23T02:13:37.221Z,0
2018-08-23T02:14:37.233Z,0
2018-08-23T02:15:37.233Z,0
2018-08-23T02:16:36.991Z,0
2018-08-23T02:17:37.493Z,0
2018-08-23T02:18:37.229Z,0
2018-08-23T02:19:41.233Z,0
2018-08-23T02:20:37.245Z,0
2018-08-23T02:21:37.511Z,0
2018-08-23T02:22:37.486Z,0
2018-08-23T02:23:37.269Z,0
2018-08-23T02:24:37.240Z,0
2018-08-23T02:25:36.477Z,0
2018-08-23T02:26:36.996Z,0
2018-08-23T02:27:37.515Z,0
2018-08-23T02:28:36.738Z,0
2018-08-23T02:29:37.248Z,0
2018-08-23T02:30:37.012Z,0
2018-08-23T02:31:36.745Z,0
2018-08-23T02:32:37.033Z,0
2018-08-23T02:33:37.271Z,0
2018-08-23T02:34:38.876Z,0
2018-08-23T02:35:37.301Z,0
2018-08-23T02:36:37.275Z,0
2018-08-23T02:37:37.279Z,0
2018-08-23T02:38:37.280Z,0
2018-08-23T02:39:37.268Z,0
2018-08-23T02:40:37.038Z,0
2018-08-23T02:41:37.287Z,0
2018-08-23T02:42:37.527Z,0
2018-08-23T02:43:37.290Z,0
2018-08-23T02:44:37.435Z,0
2018-08-23T02:45:36.771Z,0
2018-08-23T02:46:37.547Z,0
2018-08-23T02:47:37.561Z,0
2018-08-23T02:48:37.040Z,0
2018-08-23T02:49:37.295Z,0
2018-08-23T02:50:37.308Z,0
2018-08-23T02:51:36.796Z,0
2018-08-23T02:52:36.822Z,0
2018-08-23T02:53:36.875Z,0
2018-08-23T02:54:37.312Z,0
2018-08-23T02:55:37.318Z,0
2018-08-23T02:56:37.323Z,0
2018-08-23T02:57:36.799Z,0
2018-08-23T02:58:37.556Z,0
2018-08-23T02:59:37.308Z,0
2018-08-23T03:00:37.368Z,0
2018-08-23T03:01:36.823Z,0
2018-08-23T03:02:37.403Z,0
2018-08-23T03:03:36.805Z,0
2018-08-23T03:04:37.820Z,0
2018-08-23T03:05:37.587Z,0
2018-08-23T03:06:37.101Z,0
2018-08-23T03:07:37.348Z,0
2018-08-23T03:08:37.329Z,0
2018-08-23T03:09:37.590Z,0
2018-08-23T03:10:37.072Z,0
2018-08-23T03:11:37.085Z,0
2018-08-23T03:12:37.076Z,0
2018-08-23T03:13:37.325Z,0
2018-08-23T03:14:37.340Z,0
2018-08-23T03:15:37.321Z,0
2018-08-23T03:16:37.078Z,0
2018-08-23T03:17:37.332Z,0
2018-08-23T03:18:37.354Z,0
2018-08-23T03:19:37.340Z,0
2018-08-23T03:20:37.097Z,0
2018-08-23T03:21:36.823Z,0
2018-08-23T03:22:36.837Z,0
2018-08-23T03:23:37.350Z,0
2018-08-23T03:24:37.359Z,0
2018-08-23T03:25:37.624Z,0
2018-08-23T03:26:37.384Z,0
2018-08-23T03:27:36.844Z,0
2018-08-23T03:28:37.610Z,0
2018-08-23T03:29:37.408Z,0
2018-08-23T03:30:37.388Z,0
2018-08-23T03:31:37.398Z,0
2018-08-23T03:32:37.639Z,0
2018-08-23T03:33:37.454Z,0
2018-08-23T03:34:38.173Z,0
2018-08-23T03:35:37.405Z,0
2018-08-23T03:36:37.649Z,0
2018-08-23T03:37:37.144Z,0
2018-08-23T03:38:37.408Z,0
2018-08-23T03:39:36.904Z,0
2018-08-23T03:40:37.637Z,0
2018-08-23T03:41:37.646Z,0
2018-08-23T03:42:36.883Z,0
2018-08-23T03:43:37.147Z,0
2018-08-23T03:44:37.415Z,0
2018-08-23T03:45:37.393Z,0
2018-08-23T03:46:36.876Z,0
2018-08-23T03:47:36.894Z,0
2018-08-23T03:48:36.887Z,0
2018-08-23T03:49:36.639Z,0
2018-08-23T03:50:37.408Z,0
2018-08-23T03:51:37.150Z,0
2018-08-23T03:52:37.636Z,0
2018-08-23T03:53:37.430Z,0
2018-08-23T03:54:36.648Z,0
2018-08-23T03:55:37.396Z,0
2018-08-23T03:56:36.906Z,0
2018-08-23T03:57:37.674Z,0
2018-08-23T03:58:37.663Z,0
2018-08-23T03:59:38.467Z,0
2018-08-23T04:00:37.421Z,0
2018-08-23T04:01:37.421Z,0
2018-08-23T04:02:37.430Z,0
2018-08-23T04:03:37.174Z,0
2018-08-23T04:04:37.727Z,0
2018-08-23T04:05:37.783Z,0
2018-08-23T04:06:37.405Z,0
2018-08-23T04:07:37.478Z,0
2018-08-23T04:08:37.623Z,0
2018-08-23T04:09:37.612Z,0
2018-08-23T04:10:37.773Z,0
2018-08-23T04:11:37.183Z,0
2018-08-23T04:12:37.428Z,0
2018-08-23T04:13:37.538Z,0
2018-08-23T04:14:37.708Z,0
2018-08-23T04:15:38.103Z,0
2018-08-23T04:16:37.711Z,0
2018-08-23T04:17:36.930Z,0
2018-08-23T04:18:37.737Z,0
2018-08-23T04:19:37.207Z,0
2018-08-23T04:20:37.728Z,0
2018-08-23T04:21:36.967Z,0
2018-08-23T04:22:37.491Z,0
2018-08-23T04:23:37.219Z,5
2018-08-23T04:24:37.749Z,5
2018-08-23T04:25:37.452Z,5
2018-08-23T04:26:37.201Z,5
2018-08-23T04:27:37.489Z,5
2018-08-23T04:28:37.717Z,5
2018-08-23T04:29:37.768Z,5
2018-08-23T04:30:37.738Z,10
2018-08-23T04:31:37.483Z,10
2018-08-23T04:32:37.885Z,10
2018-08-23T04:33:37.383Z,10
2018-08-23T04:34:37.563Z,10
2018-08-23T04:35:38.438Z,10
2018-08-23T04:36:37.286Z,15
2018-08-23T04:37:36.967Z,15
2018-08-23T04:38:37.729Z,15
2018-08-23T04:39:37.482Z,15
2018-08-23T04:40:37.226Z,15
2018-08-23T04:41:37.476Z,20
2018-08-23T04:42:37.738Z,20
2018-08-23T04:43:37.749Z,20
2018-08-23T04:44:37.472Z,20
2018-08-23T04:45:36.964Z,20
2018-08-23T04:46:37.548Z,25
2018-08-23T04:47:37.232Z,25
2018-08-23T04:48:37.255Z,25
2018-08-23T04:49:36.976Z,25
2018-08-23T04:50:37.547Z,25
2018-08-23T04:51:37.897Z,30
2018-08-23T04:52:37.494Z,30
2018-08-23T04:53:37.500Z,30
2018-08-23T04:54:37.501Z,30
2018-08-23T04:55:37.492Z,35
2018-08-23T04:56:37.510Z,35
2018-08-23T04:57:37.497Z,35
2018-08-23T04:58:37.776Z,40
2018-08-23T04:59:37.515Z,40
2018-08-23T05:00:37.532Z,40
2018-08-23T05:01:37.773Z,45
2018-08-23T05:02:37.511Z,45
2018-08-23T05:03:37.033Z,50
2018-08-23T05:04:37.885Z,50
2018-08-23T05:05:37.804Z,55
2018-08-23T05:06:37.899Z,65
2018-08-23T05:07:37.779Z,65
2018-08-23T05:08:37.534Z,70
2018-08-23T05:09:37.555Z,70
2018-08-23T05:10:37.544Z,75
2018-08-23T05:11:37.508Z,80
2018-08-23T05:12:37.534Z,85
2018-08-23T05:13:37.578Z,90
2018-08-23T05:14:37.596Z,95
2018-08-23T05:15:37.004Z,100
2018-08-23T05:16:37.296Z,100
2018-08-23T05:17:37.534Z,105
2018-08-23T05:18:37.605Z,110
2018-08-23T05:19:37.800Z,110
2018-08-23T05:20:37.540Z,115
2018-08-23T05:21:37.033Z,115
2018-08-23T05:22:37.553Z,115
2018-08-23T05:23:37.801Z,110
2018-08-23T05:24:37.042Z,105
2018-08-23T05:25:38.097Z,100
2018-08-23T05:26:37.047Z,100
2018-08-23T05:27:37.808Z,100
2018-08-23T05:28:37.552Z,100
2018-08-23T05:29:37.600Z,105
2018-08-23T05:30:37.806Z,105
2018-08-23T05:31:37.856Z,105
2018-08-23T05:32:37.828Z,105
2018-08-23T05:33:37.042Z,110
2018-08-23T05:34:37.577Z,110
2018-08-23T05:35:38.633Z,110
2018-08-23T05:36:37.823Z,115
2018-08-23T05:37:37.570Z,115
2018-08-23T05:38:37.844Z,120
2018-08-23T05:39:37.331Z,120
2018-08-23T05:40:37.900Z,125
2018-08-23T05:41:37.352Z,130
2018-08-23T05:42:37.878Z,135
2018-08-23T05:43:37.366Z,140
2018-08-23T05:44:37.592Z,150
2018-08-23T05:45:37.644Z,160
2018-08-23T05:46:37.848Z,135
2018-08-23T05:47:37.761Z,135
2018-08-23T05:48:37.851Z,125
2018-08-23T05:49:37.365Z,120
2018-08-23T05:50:37.611Z,120
2018-08-23T05:51:37.615Z,130
2018-08-23T05:52:37.710Z,135
2018-08-23T05:53:37.876Z,150
2018-08-23T05:54:37.626Z,130
2018-08-23T05:55:37.777Z,125
2018-08-23T05:56:37.442Z,125
2018-08-23T05:57:37.646Z,130
2018-08-23T05:58:37.646Z,130
2018-08-23T05:59:37.891Z,120
2018-08-23T06:00:38.242Z,120
2018-08-23T06:01:37.954Z,120
2018-08-23T06:02:37.142Z,120
2018-08-23T06:03:37.941Z,120
2018-08-23T06:04:37.137Z,120
2018-08-23T06:05:37.523Z,120
2018-08-23T06:06:37.706Z,125
2018-08-23T06:07:37.709Z,125
2018-08-23T06:08:37.403Z,130
2018-08-23T06:09:37.915Z,135
2018-08-23T06:10:37.420Z,135
2018-08-23T06:11:37.414Z,140
2018-08-23T06:12:37.926Z,145
2018-08-23T06:13:37.416Z,155
2018-08-23T06:14:37.696Z,145
2018-08-23T06:15:37.648Z,145
2018-08-23T06:16:37.937Z,150
2018-08-23T06:17:37.431Z,140
2018-08-23T06:18:37.957Z,140
2018-08-23T06:19:37.964Z,135
2018-08-23T06:20:36.939Z,135
2018-08-23T06:21:37.977Z,135
2018-08-23T06:22:37.975Z,135
2018-08-23T06:23:37.200Z,135
2018-08-23T06:24:37.464Z,130
2018-08-23T06:25:37.730Z,130
2018-08-23T06:26:37.716Z,135
2018-08-23T06:27:38.143Z,135
2018-08-23T06:28:37.806Z,125
2018-08-23T06:29:37.478Z,125
2018-08-23T06:30:37.737Z,125
2018-08-23T06:31:37.519Z,125
2018-08-23T06:32:37.468Z,130
2018-08-23T06:33:38.839Z,120
2018-08-23T06:34:37.226Z,120
2018-08-23T06:35:37.353Z,120
2018-08-23T06:36:39.515Z,120
2018-08-23T06:37:38.177Z,120
2018-08-23T06:38:37.862Z,125
2018-08-23T06:39:37.512Z,125
2018-08-23T06:40:37.544Z,130
2018-08-23T06:41:37.011Z,130
2018-08-23T06:42:37.272Z,135
2018-08-23T06:43:38.052Z,135
2018-08-23T06:44:38.518Z,140
2018-08-23T06:45:37.772Z,140
2018-08-23T06:46:38.031Z,145
2018-08-23T06:47:38.059Z,150
2018-08-23T06:48:37.519Z,150
2018-08-23T06:49:37.797Z,150
2018-08-23T06:50:37.272Z,155
2018-08-23T06:51:37.523Z,155
2018-08-23T06:52:37.842Z,160
2018-08-23T06:53:38.062Z,160
2018-08-23T06:54:38.095Z,160
2018-08-23T06:55:37.789Z,160
2018-08-23T06:56:37.551Z,160
2018-08-23T06:57:37.886Z,160
2018-08-23T06:58:37.350Z,155
2018-08-23T06:59:37.296Z,155
2018-08-23T07:00:38.098Z,150
2018-08-23T07:01:37.580Z,145
2018-08-23T07:02:37.835Z,145
2018-08-23T07:03:38.074Z,145
2018-08-23T07:04:37.567Z,145
2018-08-23T07:05:38.214Z,145
2018-08-23T07:06:37.959Z,145
2018-08-23T07:07:38.119Z,150
2018-08-23T07:08:37.585Z,155
2018-08-23T07:09:37.586Z,155
2018-08-23T07:10:37.973Z,165
2018-08-23T07:11:37.091Z,165
2018-08-23T07:12:37.854Z,170
2018-08-23T07:13:37.849Z,175
2018-08-23T07:14:37.669Z,175
2018-08-23T07:15:39.484Z,175
2018-08-23T07:16:38.128Z,175
2018-08-23T07:17:38.217Z,175
2018-08-23T07:18:37.613Z,175
2018-08-23T07:19:37.646Z,175
2018-08-23T07:20:37.867Z,175
2018-08-23T07:21:37.862Z,180
2018-08-23T07:22:38.060Z,175
2018-08-23T07:23:37.630Z,175
2018-08-23T07:24:37.634Z,175
2018-08-23T07:25:37.913Z,175
2018-08-23T07:26:38.222Z,175
2018-08-23T07:27:37.889Z,175
2018-08-23T07:28:37.375Z,175
2018-08-23T07:29:37.625Z,175
2018-08-23T07:30:37.649Z,175
2018-08-23T07:31:37.416Z,175
2018-08-23T07:32:37.394Z,180
2018-08-23T07:33:37.696Z,180
2018-08-23T07:34:37.412Z,180
2018-08-23T07:35:37.908Z,185
2018-08-23T07:36:37.906Z,185
2018-08-23T07:37:37.916Z,185
2018-08-23T07:38:37.969Z,185
2018-08-23T07:39:37.921Z,185
2018-08-23T07:40:37.408Z,185
2018-08-23T07:41:37.692Z,180
2018-08-23T07:42:38.198Z,180
2018-08-23T07:43:37.682Z,175
2018-08-23T07:44:37.683Z,175
2018-08-23T07:45:38.233Z,170
2018-08-23T07:46:37.736Z,170
2018-08-23T07:47:37.941Z,165
2018-08-23T07:48:38.547Z,165
2018-08-23T07:49:38.267Z,160
2018-08-23T07:50:38.029Z,160
2018-08-23T07:51:38.084Z,155
2018-08-23T07:52:38.298Z,155
2018-08-23T07:53:38.298Z,150
2018-08-23T07:54:37.712Z,150
2018-08-23T07:55:38.277Z,155
2018-08-23T07:56:37.483Z,150
2018-08-23T07:57:38.253Z,150
2018-08-23T07:58:38.033Z,150
2018-08-23T07:59:37.993Z,150
2018-08-23T08:00:37.770Z,150
2018-08-23T08:01:38.292Z,150
2018-08-23T08:02:38.022Z,150
2018-08-23T08:03:37.769Z,145
2018-08-23T08:04:38.026Z,150
2018-08-23T08:05:38.280Z,150
2018-08-23T08:06:39.630Z,150
2018-08-23T08:07:37.836Z,150
2018-08-23T08:08:37.527Z,150
2018-08-23T08:09:37.800Z,150
2018-08-23T08:10:37.519Z,150
2018-08-23T08:11:37.787Z,150
2018-08-23T08:12:38.066Z,145
2018-08-23T08:13:38.061Z,140
2018-08-23T08:14:38.065Z,135
2018-08-23T08:15:38.171Z,130
2018-08-23T08:16:38.085Z,125
2018-08-23T08:17:38.347Z,125
2018-08-23T08:18:38.348Z,125
2018-08-23T08:19:37.854Z,120
2018-08-23T08:20:37.830Z,120
2018-08-23T08:21:38.636Z,125
2018-08-23T08:22:38.103Z,125
2018-08-23T08:23:37.835Z,130
2018-08-23T08:24:37.839Z,130
2018-08-23T08:25:37.862Z,130
2018-08-23T08:26:38.096Z,130
2018-08-23T08:27:37.618Z,135
2018-08-23T08:28:38.134Z,140
2018-08-23T08:29:38.126Z,145
2018-08-23T08:30:38.404Z,150
2018-08-23T08:31:37.876Z,155
2018-08-23T08:32:38.398Z,155
2018-08-23T08:33:37.908Z,160
2018-08-23T08:34:37.893Z,165
2018-08-23T08:35:38.144Z,165
2018-08-23T08:36:38.680Z,170
2018-08-23T08:37:37.901Z,170
2018-08-23T08:38:38.169Z,170
2018-08-23T08:39:37.912Z,170
2018-08-23T08:40:37.664Z,170
2018-08-23T08:41:37.641Z,175
2018-08-23T08:42:38.471Z,170
2018-08-23T08:43:38.460Z,175
2018-08-23T08:44:38.178Z,180
2018-08-23T08:45:37.665Z,190
2018-08-23T08:46:38.259Z,195
2018-08-23T08:47:38.198Z,200
2018-08-23T08:48:38.474Z,205
2018-08-23T08:49:38.511Z,210
2018-08-23T08:50:38.592Z,210
2018-08-23T08:51:37.945Z,210
2018-08-23T08:52:38.482Z,210
2018-08-23T08:53:38.490Z,210
2018-08-23T08:54:38.289Z,210
2018-08-23T08:55:38.500Z,215
2018-08-23T08:56:38.547Z,220
2018-08-23T08:57:38.338Z,225
2018-08-23T08:58:37.737Z,230
2018-08-23T08:59:38.580Z,235
2018-08-23T09:00:38.255Z,235
2018-08-23T09:01:38.516Z,240
2018-08-23T09:02:38.263Z,240
2018-08-23T09:03:37.996Z,240
2018-08-23T09:04:38.009Z,240
2018-08-23T09:05:38.046Z,240
2018-08-23T09:06:38.041Z,245
2018-08-23T09:07:38.174Z,245
2018-08-23T09:08:38.321Z,250
2018-08-23T09:09:38.342Z,255
2018-08-23T09:10:38.156Z,265
2018-08-23T09:11:38.115Z,260
2018-08-23T09:12:38.061Z,265
2018-08-23T09:13:38.122Z,270
2018-08-23T09:14:38.350Z,275
2018-08-23T09:15:38.061Z,290
2018-08-23T09:16:38.110Z,335
2018-08-23T09:17:38.092Z,325
2018-08-23T09:18:38.758Z,360
2018-08-23T09:19:38.096Z,325
2018-08-23T09:20:38.945Z,320
2018-08-23T09:21:38.415Z,335
2018-08-23T09:22:38.137Z,385
2018-08-23T09:23:38.175Z,410
2018-08-23T09:24:38.459Z,400
2018-08-23T09:25:38.154Z,430
2018-08-23T09:26:38.008Z,380
2018-08-23T09:27:38.262Z,375
2018-08-23T09:28:38.713Z,405
2018-08-23T09:29:38.508Z,365
2018-08-23T09:30:38.654Z,415
2018-08-23T09:31:38.147Z,395
2018-08-23T09:32:38.151Z,405
2018-08-23T09:33:38.153Z,395
2018-08-23T09:34:38.152Z,410
2018-08-23T09:35:38.195Z,345
2018-08-23T09:36:38.152Z,330
2018-08-23T09:37:40.084Z,325
2018-08-23T09:38:38.204Z,335
2018-08-23T09:39:38.436Z,420
2018-08-23T09:40:38.200Z,325
2018-08-23T09:41:38.250Z,315
2018-08-23T09:42:38.791Z,330
2018-08-23T09:43:38.705Z,310
2018-08-23T09:44:38.250Z,305
2018-08-23T09:45:38.542Z,335
2018-08-23T09:46:38.772Z,390
2018-08-23T09:47:38.013Z,385
2018-08-23T09:48:38.536Z,300
2018-08-23T09:49:38.496Z,285
2018-08-23T09:50:38.929Z,295
2018-08-23T09:51:38.516Z,270
2018-08-23T09:52:38.546Z,260
2018-08-23T09:53:38.099Z,260
2018-08-23T09:54:38.310Z,270
2018-08-23T09:55:38.623Z,300
2018-08-23T09:56:39.363Z,245
2018-08-23T09:57:38.628Z,230
2018-08-23T09:58:38.805Z,225
2018-08-23T09:59:38.595Z,220
2018-08-23T10:00:38.334Z,215
2018-08-23T10:01:38.450Z,210
2018-08-23T10:02:38.609Z,210
2018-08-23T10:03:38.606Z,245
2018-08-23T10:04:38.203Z,235
2018-08-23T10:05:38.398Z,215
2018-08-23T10:06:38.341Z,260
2018-08-23T10:07:40.784Z,275
2018-08-23T10:08:38.365Z,270
2018-08-23T10:09:38.362Z,220
2018-08-23T10:10:38.618Z,215
2018-08-23T10:11:38.855Z,215
2018-08-23T10:12:38.929Z,225
2018-08-23T10:13:37.911Z,235
2018-08-23T10:14:38.678Z,275
2018-08-23T10:15:38.405Z,285
2018-08-23T10:16:38.452Z,255
2018-08-23T10:17:39.090Z,225
2018-08-23T10:18:38.502Z,255
2018-08-23T10:19:38.704Z,235
2018-08-23T10:20:38.511Z,285
2018-08-23T10:21:38.235Z,260
2018-08-23T10:22:38.453Z,280
2018-08-23T10:23:38.501Z,250
2018-08-23T10:24:38.520Z,300
2018-08-23T10:25:38.538Z,300
2018-08-23T10:26:38.743Z,300
2018-08-23T10:27:38.477Z,305
2018-08-23T10:28:38.233Z,315
2018-08-23T10:29:37.977Z,310
2018-08-23T10:30:39.035Z,330
2018-08-23T10:31:38.785Z,340
2018-08-23T10:32:38.760Z,295
2018-08-23T10:33:38.775Z,290
2018-08-23T10:34:38.781Z,270
2018-08-23T10:35:38.522Z,305
2018-08-23T10:36:38.605Z,275
2018-08-23T10:37:38.531Z,315
2018-08-23T10:38:38.827Z,270
2018-08-23T10:39:38.790Z,295
2018-08-23T10:40:38.433Z,345
2018-08-23T10:41:38.605Z,335
2018-08-23T10:42:38.460Z,340
2018-08-23T10:43:38.979Z,330
2018-08-23T10:44:39.196Z,280
2018-08-23T10:45:39.091Z,280
2018-08-23T10:46:38.904Z,285
2018-08-23T10:47:38.852Z,295
2018-08-23T10:48:38.856Z,290
2018-08-23T10:49:38.855Z,305
2018-08-23T10:50:39.010Z,285
2018-08-23T10:51:38.628Z,290
2018-08-23T10:52:38.625Z,280
2018-08-23T10:53:38.878Z,275
2018-08-23T10:54:38.883Z,275
2018-08-23T10:55:38.877Z,305
2018-08-23T10:56:38.902Z,290
2018-08-23T10:57:38.630Z,310
2018-08-23T10:58:39.152Z,295
2018-08-23T10:59:38.642Z,280
2018-08-23T11:00:38.468Z,275
2018-08-23T11:01:38.736Z,270
2018-08-23T11:02:38.445Z,265
2018-08-23T11:03:38.738Z,270
2018-08-23T11:04:38.466Z,270
2018-08-23T11:05:39.230Z,275
2018-08-23T11:06:38.977Z,275
2018-08-23T11:07:38.719Z,270
2018-08-23T11:08:39.663Z,265
2018-08-23T11:09:39.419Z,265
2018-08-23T11:10:38.734Z,260
2018-08-23T11:11:38.724Z,255
2018-08-23T11:12:38.982Z,310
2018-08-23T11:13:39.048Z,255
2018-08-23T11:14:38.732Z,245
2018-08-23T11:15:38.777Z,245
2018-08-23T11:16:38.713Z,235
2018-08-23T11:17:39.039Z,235
2018-08-23T11:18:38.268Z,245
2018-08-23T11:19:38.772Z,265
2018-08-23T11:20:39.032Z,285
2018-08-23T11:21:38.292Z,275
2018-08-23T11:22:39.296Z,270
2018-08-23T11:23:39.320Z,270
2018-08-23T11:24:39.073Z,270
2018-08-23T11:25:39.058Z,260
2018-08-23T11:26:38.818Z,260
2018-08-23T11:27:38.557Z,250
2018-08-23T11:28:39.089Z,255
2018-08-23T11:29:39.971Z,250
2018-08-23T11:30:39.331Z,250
2018-08-23T11:31:39.374Z,250
2018-08-23T11:32:39.091Z,250
2018-08-23T11:33:38.849Z,245
2018-08-23T11:34:38.856Z,245
2018-08-23T11:35:39.137Z,245
2018-08-23T11:36:38.607Z,245
2018-08-23T11:37:39.124Z,240
2018-08-23T11:38:39.136Z,245
2018-08-23T11:39:38.743Z,245
2018-08-23T11:40:38.912Z,250
2018-08-23T11:41:39.210Z,245
2018-08-23T11:42:39.309Z,245
2018-08-23T11:43:39.479Z,250
2018-08-23T11:44:39.171Z,240
2018-08-23T11:45:39.299Z,230
2018-08-23T11:46:39.485Z,220
2018-08-23T11:47:38.964Z,220
2018-08-23T11:48:38.945Z,235
2018-08-23T11:49:38.945Z,255
2018-08-23T11:50:39.287Z,255
2018-08-23T11:51:38.967Z,265
2018-08-23T11:52:39.241Z,285
2018-08-23T11:53:41.163Z,310
2018-08-23T11:54:38.996Z,320
2018-08-23T11:55:39.238Z,315
2018-08-23T11:56:38.525Z,300
2018-08-23T11:57:39.249Z,285
2018-08-23T11:58:39.274Z,275
2018-08-23T11:59:39.260Z,260
2018-08-23T12:00:39.005Z,250
2018-08-23T12:01:39.015Z,245
2018-08-23T12:02:39.259Z,235
2018-08-23T12:03:39.019Z,235
2018-08-23T12:04:38.503Z,235
2018-08-23T12:05:38.777Z,240
2018-08-23T12:06:40.047Z,235
2018-08-23T12:07:39.602Z,235
2018-08-23T12:08:39.737Z,230
2018-08-23T12:09:39.285Z,225
2018-08-23T12:10:39.055Z,210
2018-08-23T12:11:39.322Z,205
2018-08-23T12:12:39.119Z,185
2018-08-23T12:13:39.071Z,170
2018-08-23T12:14:39.332Z,155
2018-08-23T12:15:39.971Z,140
2018-08-23T12:16:39.114Z,130
2018-08-23T12:17:39.620Z,120
2018-08-23T12:18:39.097Z,110
2018-08-23T12:19:39.620Z,95
2018-08-23T12:20:39.362Z,90
2018-08-23T12:21:39.386Z,85
2018-08-23T12:22:38.843Z,75
2018-08-23T12:23:39.378Z,65
2018-08-23T12:24:39.633Z,55
2018-08-23T12:25:39.518Z,45
2018-08-23T12:26:39.316Z,40
2018-08-23T12:27:39.461Z,40
2018-08-23T12:28:39.152Z,40
2018-08-23T12:29:39.427Z,35
2018-08-23T12:30:38.918Z,30
2018-08-23T12:31:39.550Z,30
2018-08-23T12:32:39.177Z,25
2018-08-23T12:33:39.437Z,25
2018-08-23T12:34:39.438Z,25
2018-08-23T12:35:39.711Z,20
2018-08-23T12:36:38.945Z,20
2018-08-23T12:37:39.862Z,20
2018-08-23T12:38:39.880Z,20
2018-08-23T12:39:39.228Z,20
2018-08-23T12:40:39.738Z,20
2018-08-23T12:41:39.485Z,15
2018-08-23T12:42:39.366Z,15
2018-08-23T12:43:39.736Z,15
2018-08-23T12:44:40.011Z,15
2018-08-23T12:45:38.770Z,15
2018-08-23T12:46:39.825Z,15
2018-08-23T12:47:39.286Z,15
2018-08-23T12:48:39.797Z,15
2018-08-23T12:49:39.935Z,15
2018-08-23T12:50:39.545Z,15
2018-08-23T12:51:39.253Z,20
2018-08-23T12:52:38.759Z,20
2018-08-23T12:53:39.552Z,20
2018-08-23T12:54:39.794Z,20
2018-08-23T12:55:39.788Z,20
2018-08-23T12:56:39.696Z,20
2018-08-23T12:57:39.534Z,25
2018-08-23T12:58:39.816Z,25
2018-08-23T12:59:39.547Z,25
2018-08-23T13:00:39.034Z,25
2018-08-23T13:01:39.817Z,25
2018-08-23T13:02:40.652Z,30
2018-08-23T13:03:39.470Z,30
2018-08-23T13:04:39.581Z,30
2018-08-23T13:05:39.829Z,30
2018-08-23T13:06:39.339Z,30
2018-08-23T13:07:39.399Z,35
2018-08-23T13:08:39.992Z,35
2018-08-23T13:09:39.331Z,35
2018-08-23T13:10:39.331Z,35
2018-08-23T13:11:39.312Z,40
2018-08-23T13:12:39.839Z,40
2018-08-23T13:13:39.332Z,40
2018-08-23T13:14:39.075Z,40
2018-08-23T13:15:39.889Z,45
2018-08-23T13:16:39.597Z,45
2018-08-23T13:17:39.304Z,45
2018-08-23T13:18:39.134Z,45
2018-08-23T13:19:39.139Z,45
2018-08-23T13:20:39.115Z,45
2018-08-23T13:21:39.350Z,45
2018-08-23T13:22:39.639Z,45
2018-08-23T13:23:39.385Z,45
2018-08-23T13:24:39.616Z,45
2018-08-23T13:25:39.639Z,45
2018-08-23T13:26:39.636Z,45
2018-08-23T13:27:40.214Z,45
2018-08-23T13:28:39.643Z,45
2018-08-23T13:29:39.401Z,45
2018-08-23T13:30:39.407Z,45
2018-08-23T13:31:39.980Z,45
2018-08-23T13:32:39.117Z,45
2018-08-23T13:33:39.655Z,45
2018-08-23T13:34:39.388Z,45
2018-08-23T13:35:39.595Z,45
2018-08-23T13:36:39.731Z,45
2018-08-23T13:37:39.183Z,45
2018-08-23T13:38:39.688Z,45
2018-08-23T13:39:39.469Z,45
2018-08-23T13:40:39.449Z,45
2018-08-23T13:41:39.451Z,45
2018-08-23T13:42:39.612Z,45
2018-08-23T13:43:40.197Z,50
2018-08-23T13:44:39.244Z,50
2018-08-23T13:45:39.696Z,50
2018-08-23T13:46:39.698Z,55
2018-08-23T13:47:39.963Z,60
2018-08-23T13:48:40.746Z,60
2018-08-23T13:49:39.713Z,65
2018-08-23T13:50:39.465Z,70
2018-08-23T13:51:39.976Z,75
2018-08-23T13:52:39.868Z,75
2018-08-23T13:53:39.983Z,80
2018-08-23T13:54:40.001Z,80
2018-08-23T13:55:39.472Z,85
2018-08-23T13:56:39.973Z,85
2018-08-23T13:57:39.471Z,90
2018-08-23T13:58:39.503Z,95
2018-08-23T13:59:39.467Z,95
2018-08-23T14:00:39.474Z,100
2018-08-23T14:01:39.219Z,100
2018-08-23T14:02:39.563Z,100
2018-08-23T14:03:39.505Z,100
2018-08-23T14:04:39.765Z,95
2018-08-23T14:05:40.009Z,95
2018-08-23T14:06:39.660Z,90
2018-08-23T14:07:40.034Z,90
2018-08-23T14:08:39.757Z,85
2018-08-23T14:09:40.023Z,85